sensor_id;sensor_type;location;lat;lon;timestamp;temperature;humidity
21602;DHT22;10963;50.934;4.668;2024-01-30T00:00:50;10.80;99.90
21602;DHT22;10963;50.934;4.668;2024-01-30T00:03:16;10.80;99.90
21602;DHT22;10963;50.934;4.668;2024-01-30T00:05:42;10.70;99.90
21602;DHT22;10963;50.934;4.668;2024-01-30T00:08:10;10.80;99.90
21602;DHT22;10963;50.934;4.668;2024-01-30T00:10:36;10.70;99.90
21602;DHT22;10963;50.934;4.668;2024-01-30T00:13:02;10.70;99.90
21602;DHT22;10963;50.934;4.668;2024-01-30T00:15:28;10.70;99.90
21602;DHT22;10963;50.934;4.668;2024-01-30T00:17:59;10.70;99.90
21602;DHT22;10963;50.934;4.668;2024-01-30T00:20:24;10.80;99.90
21602;DHT22;10963;50.934;4.668;2024-01-30T00:22:50;10.80;99.90
21602;DHT22;10963;50.934;4.668;2024-01-30T00:25:21;10.80;99.90
21602;DHT22;10963;50.934;4.668;2024-01-30T00:27:46;10.80;99.90
21602;DHT22;10963;50.934;4.668;2024-01-30T00:30:15;10.90;99.90
21602;DHT22;10963;50.934;4.668;2024-01-30T00:32:41;10.90;99.90
21602;DHT22;10963;50.934;4.668;2024-01-30T00:35:09;10.90;99.90
21602;DHT22;10963;50.934;4.668;2024-01-30T00:37:38;10.80;99.90
21602;DHT22;10963;50.934;4.668;2024-01-30T00:40:04;10.80;99.90
21602;DHT22;10963;50.934;4.668;2024-01-30T00:42:31;10.80;99.90
21602;DHT22;10963;50.934;4.668;2024-01-30T00:44:58;10.80;99.90
21602;DHT22;10963;50.934;4.668;2024-01-30T00:47:23;10.70;99.90
21602;DHT22;10963;50.934;4.668;2024-01-30T00:49:49;10.90;99.90
21602;DHT22;10963;50.934;4.668;2024-01-30T00:52:15;10.80;99.90
21602;DHT22;10963;50.934;4.668;2024-01-30T00:54:41;10.70;99.90
21602;DHT22;10963;50.934;4.668;2024-01-30T00:57:07;10.70;99.90
21602;DHT22;10963;50.934;4.668;2024-01-30T00:59:35;10.70;99.90
21602;DHT22;10963;50.934;4.668;2024-01-30T01:02:01;10.80;99.90
21602;DHT22;10963;50.934;4.668;2024-01-30T01:04:27;10.80;99.90
21602;DHT22;10963;50.934;4.668;2024-01-30T01:06:53;10.90;99.90
21602;DHT22;10963;50.934;4.668;2024-01-30T01:09:19;10.90;99.90
21602;DHT22;10963;50.934;4.668;2024-01-30T01:11:44;10.90;99.90
21602;DHT22;10963;50.934;4.668;2024-01-30T01:14:10;10.90;99.90
21602;DHT22;10963;50.934;4.668;2024-01-30T01:16:38;11.00;99.90
21602;DHT22;10963;50.934;4.668;2024-01-30T01:19:04;10.90;99.90
21602;DHT22;10963;50.934;4.668;2024-01-30T01:21:30;11.00;99.90
21602;DHT22;10963;50.934;4.668;2024-01-30T01:23:55;11.00;99.90
21602;DHT22;10963;50.934;4.668;2024-01-30T01:26:21;10.90;99.90
21602;DHT22;10963;50.934;4.668;2024-01-30T01:28:52;10.90;99.90
21602;DHT22;10963;50.934;4.668;2024-01-30T01:31:20;11.00;99.90
21602;DHT22;10963;50.934;4.668;2024-01-30T01:33:50;11.00;99.90
21602;DHT22;10963;50.934;4.668;2024-01-30T01:36:16;11.10;99.90
21602;DHT22;10963;50.934;4.668;2024-01-30T01:38:41;11.20;99.90
21602;DHT22;10963;50.934;4.668;2024-01-30T01:41:07;11.20;99.90
21602;DHT22;10963;50.934;4.668;2024-01-30T01:43:33;11.20;99.90
21602;DHT22;10963;50.934;4.668;2024-01-30T01:46:01;11.00;99.90
21602;DHT22;10963;50.934;4.668;2024-01-30T01:48:27;11.00;99.90
21602;DHT22;10963;50.934;4.668;2024-01-30T01:50:53;10.90;99.90
21602;DHT22;10963;50.934;4.668;2024-01-30T01:53:19;10.90;99.90
21602;DHT22;10963;50.934;4.668;2024-01-30T01:55:46;11.00;99.90
21602;DHT22;10963;50.934;4.668;2024-01-30T01:58:13;11.00;99.90
21602;DHT22;10963;50.934;4.668;2024-01-30T02:00:39;11.10;99.90
21602;DHT22;10963;50.934;4.668;2024-01-30T02:03:08;11.10;99.90
21602;DHT22;10963;50.934;4.668;2024-01-30T02:05:36;11.10;99.90
21602;DHT22;10963;50.934;4.668;2024-01-30T02:08:02;11.10;99.90
21602;DHT22;10963;50.934;4.668;2024-01-30T02:10:31;11.00;99.90
21602;DHT22;10963;50.934;4.668;2024-01-30T02:12:56;11.00;99.90
21602;DHT22;10963;50.934;4.668;2024-01-30T02:15:22;11.00;99.90
21602;DHT22;10963;50.934;4.668;2024-01-30T02:17:51;10.90;99.90
21602;DHT22;10963;50.934;4.668;2024-01-30T02:20:16;10.80;99.90
21602;DHT22;10963;50.934;4.668;2024-01-30T02:22:43;10.80;99.90
21602;DHT22;10963;50.934;4.668;2024-01-30T02:25:08;10.80;99.90
21602;DHT22;10963;50.934;4.668;2024-01-30T02:27:34;10.80;99.90
21602;DHT22;10963;50.934;4.668;2024-01-30T02:30:00;10.90;99.90
21602;DHT22;10963;50.934;4.668;2024-01-30T02:32:26;11.00;99.90
21602;DHT22;10963;50.934;4.668;2024-01-30T02:34:51;10.90;99.90
21602;DHT22;10963;50.934;4.668;2024-01-30T02:37:19;11.00;99.90
21602;DHT22;10963;50.934;4.668;2024-01-30T02:39:45;10.90;99.90
21602;DHT22;10963;50.934;4.668;2024-01-30T02:42:13;10.80;99.90
21602;DHT22;10963;50.934;4.668;2024-01-30T02:44:41;10.80;99.90
21602;DHT22;10963;50.934;4.668;2024-01-30T02:47:07;10.80;99.90
21602;DHT22;10963;50.934;4.668;2024-01-30T02:49:33;10.80;99.90
21602;DHT22;10963;50.934;4.668;2024-01-30T02:51:58;10.70;99.90
21602;DHT22;10963;50.934;4.668;2024-01-30T02:54:24;10.70;99.90
21602;DHT22;10963;50.934;4.668;2024-01-30T02:56:52;10.70;99.90
21602;DHT22;10963;50.934;4.668;2024-01-30T02:59:18;10.70;99.90
21602;DHT22;10963;50.934;4.668;2024-01-30T03:01:46;10.70;99.90
21602;DHT22;10963;50.934;4.668;2024-01-30T03:04:13;10.60;99.90
21602;DHT22;10963;50.934;4.668;2024-01-30T03:06:39;10.60;99.90
21602;DHT22;10963;50.934;4.668;2024-01-30T03:09:07;10.70;99.90
21602;DHT22;10963;50.934;4.668;2024-01-30T03:11:37;10.70;99.90
21602;DHT22;10963;50.934;4.668;2024-01-30T03:14:02;10.80;99.90
21602;DHT22;10963;50.934;4.668;2024-01-30T03:16:32;10.80;99.90
21602;DHT22;10963;50.934;4.668;2024-01-30T03:19:00;10.70;99.90
21602;DHT22;10963;50.934;4.668;2024-01-30T03:21:27;10.70;99.90
21602;DHT22;10963;50.934;4.668;2024-01-30T03:23:55;10.70;99.90
21602;DHT22;10963;50.934;4.668;2024-01-30T03:26:23;10.70;99.90
21602;DHT22;10963;50.934;4.668;2024-01-30T03:28:51;10.70;99.90
21602;DHT22;10963;50.934;4.668;2024-01-30T03:31:19;10.70;99.90
21602;DHT22;10963;50.934;4.668;2024-01-30T03:33:45;10.60;99.90
21602;DHT22;10963;50.934;4.668;2024-01-30T03:36:11;10.60;99.90
21602;DHT22;10963;50.934;4.668;2024-01-30T03:38:39;10.60;99.90
21602;DHT22;10963;50.934;4.668;2024-01-30T03:41:08;10.60;99.90
21602;DHT22;10963;50.934;4.668;2024-01-30T03:43:39;10.60;99.90
21602;DHT22;10963;50.934;4.668;2024-01-30T03:46:07;10.80;99.90
21602;DHT22;10963;50.934;4.668;2024-01-30T03:48:35;10.70;99.90
21602;DHT22;10963;50.934;4.668;2024-01-30T03:51:01;10.70;99.90
21602;DHT22;10963;50.934;4.668;2024-01-30T03:53:29;10.70;99.90
21602;DHT22;10963;50.934;4.668;2024-01-30T03:55:55;10.80;99.90
21602;DHT22;10963;50.934;4.668;2024-01-30T03:58:21;10.80;99.90
21602;DHT22;10963;50.934;4.668;2024-01-30T04:00:46;10.90;99.90
21602;DHT22;10963;50.934;4.668;2024-01-30T04:03:15;10.90;99.90
21602;DHT22;10963;50.934;4.668;2024-01-30T04:05:46;11.00;99.90
21602;DHT22;10963;50.934;4.668;2024-01-30T04:08:12;11.10;99.90
21602;DHT22;10963;50.934;4.668;2024-01-30T04:10:40;11.20;99.90
21602;DHT22;10963;50.934;4.668;2024-01-30T04:13:06;11.20;99.90
21602;DHT22;10963;50.934;4.668;2024-01-30T04:15:31;11.20;99.90
21602;DHT22;10963;50.934;4.668;2024-01-30T04:17:58;11.30;99.90
21602;DHT22;10963;50.934;4.668;2024-01-30T04:20:24;11.40;99.90
21602;DHT22;10963;50.934;4.668;2024-01-30T04:22:52;11.50;99.90
21602;DHT22;10963;50.934;4.668;2024-01-30T04:25:20;11.40;99.90
21602;DHT22;10963;50.934;4.668;2024-01-30T04:27:51;11.30;99.90
21602;DHT22;10963;50.934;4.668;2024-01-30T04:30:19;11.20;99.90
21602;DHT22;10963;50.934;4.668;2024-01-30T04:32:44;11.20;99.90
21602;DHT22;10963;50.934;4.668;2024-01-30T04:35:10;11.10;99.90
21602;DHT22;10963;50.934;4.668;2024-01-30T04:37:36;11.10;99.90
21602;DHT22;10963;50.934;4.668;2024-01-30T04:40:05;11.00;99.90
21602;DHT22;10963;50.934;4.668;2024-01-30T04:42:33;11.00;99.90
21602;DHT22;10963;50.934;4.668;2024-01-30T04:45:01;11.00;99.90
21602;DHT22;10963;50.934;4.668;2024-01-30T04:47:27;11.10;99.90
21602;DHT22;10963;50.934;4.668;2024-01-30T04:49:53;11.00;99.90
21602;DHT22;10963;50.934;4.668;2024-01-30T04:52:19;11.00;99.90
21602;DHT22;10963;50.934;4.668;2024-01-30T04:54:44;10.90;99.90
21602;DHT22;10963;50.934;4.668;2024-01-30T04:57:10;10.80;99.90
21602;DHT22;10963;50.934;4.668;2024-01-30T04:59:37;10.90;99.90
21602;DHT22;10963;50.934;4.668;2024-01-30T05:02:03;11.10;99.90
21602;DHT22;10963;50.934;4.668;2024-01-30T05:04:29;11.10;99.90
21602;DHT22;10963;50.934;4.668;2024-01-30T05:06:57;11.20;99.90
21602;DHT22;10963;50.934;4.668;2024-01-30T05:09:23;11.20;99.90
21602;DHT22;10963;50.934;4.668;2024-01-30T05:11:48;11.10;99.90
21602;DHT22;10963;50.934;4.668;2024-01-30T05:14:14;11.10;99.90
21602;DHT22;10963;50.934;4.668;2024-01-30T05:16:45;11.10;99.90
21602;DHT22;10963;50.934;4.668;2024-01-30T05:19:13;11.20;99.90
21602;DHT22;10963;50.934;4.668;2024-01-30T05:21:39;11.20;99.90
21602;DHT22;10963;50.934;4.668;2024-01-30T05:24:13;11.30;99.90
21602;DHT22;10963;50.934;4.668;2024-01-30T05:26:38;11.30;99.90
21602;DHT22;10963;50.934;4.668;2024-01-30T05:29:05;11.40;99.90
21602;DHT22;10963;50.934;4.668;2024-01-30T05:31:31;11.40;99.90
21602;DHT22;10963;50.934;4.668;2024-01-30T05:33:57;11.50;99.90
21602;DHT22;10963;50.934;4.668;2024-01-30T05:36:23;11.50;99.90
21602;DHT22;10963;50.934;4.668;2024-01-30T05:38:51;11.40;99.90
21602;DHT22;10963;50.934;4.668;2024-01-30T05:41:21;11.40;99.90
21602;DHT22;10963;50.934;4.668;2024-01-30T05:43:47;11.40;99.90
21602;DHT22;10963;50.934;4.668;2024-01-30T05:46:13;11.50;99.90
21602;DHT22;10963;50.934;4.668;2024-01-30T05:48:39;11.40;99.90
21602;DHT22;10963;50.934;4.668;2024-01-30T05:51:07;11.40;99.90
21602;DHT22;10963;50.934;4.668;2024-01-30T05:53:38;11.30;99.90
21602;DHT22;10963;50.934;4.668;2024-01-30T05:56:04;11.30;99.90
21602;DHT22;10963;50.934;4.668;2024-01-30T05:58:30;11.30;99.90
21602;DHT22;10963;50.934;4.668;2024-01-30T06:01:06;11.30;99.90
21602;DHT22;10963;50.934;4.668;2024-01-30T06:03:34;11.30;99.90
21602;DHT22;10963;50.934;4.668;2024-01-30T06:06:01;11.30;99.90
21602;DHT22;10963;50.934;4.668;2024-01-30T06:08:26;11.30;99.90
21602;DHT22;10963;50.934;4.668;2024-01-30T06:10:59;11.20;99.90
21602;DHT22;10963;50.934;4.668;2024-01-30T06:13:27;11.40;99.90
21602;DHT22;10963;50.934;4.668;2024-01-30T06:16:01;11.40;99.90
21602;DHT22;10963;50.934;4.668;2024-01-30T06:18:27;11.40;99.90
21602;DHT22;10963;50.934;4.668;2024-01-30T06:20:54;11.40;99.90
21602;DHT22;10963;50.934;4.668;2024-01-30T06:23:25;11.30;99.90
21602;DHT22;10963;50.934;4.668;2024-01-30T06:25:53;11.40;99.90
21602;DHT22;10963;50.934;4.668;2024-01-30T06:28:18;11.40;99.90
21602;DHT22;10963;50.934;4.668;2024-01-30T06:30:47;11.30;99.90
21602;DHT22;10963;50.934;4.668;2024-01-30T06:33:15;11.40;99.90
21602;DHT22;10963;50.934;4.668;2024-01-30T06:35:41;11.30;99.90
21602;DHT22;10963;50.934;4.668;2024-01-30T06:38:07;11.30;99.90
21602;DHT22;10963;50.934;4.668;2024-01-30T06:40:33;11.30;99.90
21602;DHT22;10963;50.934;4.668;2024-01-30T06:42:58;11.20;99.90
21602;DHT22;10963;50.934;4.668;2024-01-30T06:45:24;11.20;99.90
21602;DHT22;10963;50.934;4.668;2024-01-30T06:47:52;11.10;99.90
21602;DHT22;10963;50.934;4.668;2024-01-30T06:50:18;11.00;99.90
21602;DHT22;10963;50.934;4.668;2024-01-30T06:52:43;10.90;99.90
21602;DHT22;10963;50.934;4.668;2024-01-30T06:55:12;10.80;99.90
21602;DHT22;10963;50.934;4.668;2024-01-30T06:57:39;10.80;99.90
21602;DHT22;10963;50.934;4.668;2024-01-30T07:00:08;10.70;99.90
21602;DHT22;10963;50.934;4.668;2024-01-30T07:02:36;10.70;99.90
21602;DHT22;10963;50.934;4.668;2024-01-30T07:05:02;10.80;99.90
21602;DHT22;10963;50.934;4.668;2024-01-30T07:07:28;10.70;99.90
21602;DHT22;10963;50.934;4.668;2024-01-30T07:09:54;10.70;99.90
21602;DHT22;10963;50.934;4.668;2024-01-30T07:12:27;10.80;99.90
21602;DHT22;10963;50.934;4.668;2024-01-30T07:14:55;10.80;99.90
21602;DHT22;10963;50.934;4.668;2024-01-30T07:17:21;10.80;99.90
21602;DHT22;10963;50.934;4.668;2024-01-30T07:19:50;10.80;99.90
21602;DHT22;10963;50.934;4.668;2024-01-30T07:22:16;10.90;99.90
21602;DHT22;10963;50.934;4.668;2024-01-30T07:24:44;10.80;99.90
21602;DHT22;10963;50.934;4.668;2024-01-30T07:27:15;10.80;99.90
21602;DHT22;10963;50.934;4.668;2024-01-30T07:29:43;10.80;99.90
21602;DHT22;10963;50.934;4.668;2024-01-30T07:32:08;10.70;99.90
21602;DHT22;10963;50.934;4.668;2024-01-30T07:34:36;10.80;99.90
21602;DHT22;10963;50.934;4.668;2024-01-30T07:37:04;10.80;99.90
21602;DHT22;10963;50.934;4.668;2024-01-30T07:39:30;10.80;99.90
21602;DHT22;10963;50.934;4.668;2024-01-30T07:41:56;10.90;99.90
21602;DHT22;10963;50.934;4.668;2024-01-30T07:44:22;10.90;99.90
21602;DHT22;10963;50.934;4.668;2024-01-30T07:46:49;11.00;99.90
21602;DHT22;10963;50.934;4.668;2024-01-30T07:49:17;10.90;99.90
21602;DHT22;10963;50.934;4.668;2024-01-30T07:51:43;10.80;99.90
21602;DHT22;10963;50.934;4.668;2024-01-30T07:54:16;10.80;99.90
21602;DHT22;10963;50.934;4.668;2024-01-30T07:56:43;10.90;99.90
21602;DHT22;10963;50.934;4.668;2024-01-30T07:59:11;10.90;99.90
21602;DHT22;10963;50.934;4.668;2024-01-30T08:01:38;11.10;99.90
21602;DHT22;10963;50.934;4.668;2024-01-30T08:04:06;11.20;99.90
21602;DHT22;10963;50.934;4.668;2024-01-30T08:06:34;11.40;99.90
21602;DHT22;10963;50.934;4.668;2024-01-30T08:08:59;11.50;99.90
21602;DHT22;10963;50.934;4.668;2024-01-30T08:11:25;11.50;99.90
21602;DHT22;10963;50.934;4.668;2024-01-30T08:13:53;11.50;99.90
21602;DHT22;10963;50.934;4.668;2024-01-30T08:16:23;11.40;99.90
21602;DHT22;10963;50.934;4.668;2024-01-30T08:18:53;11.40;99.90
21602;DHT22;10963;50.934;4.668;2024-01-30T08:21:25;11.40;99.90
21602;DHT22;10963;50.934;4.668;2024-01-30T08:23:51;11.50;99.90
21602;DHT22;10963;50.934;4.668;2024-01-30T08:26:19;11.50;99.90
21602;DHT22;10963;50.934;4.668;2024-01-30T08:28:44;11.60;99.90
21602;DHT22;10963;50.934;4.668;2024-01-30T08:31:12;11.50;99.90
21602;DHT22;10963;50.934;4.668;2024-01-30T08:33:38;11.50;99.90
21602;DHT22;10963;50.934;4.668;2024-01-30T08:36:04;11.40;99.90
21602;DHT22;10963;50.934;4.668;2024-01-30T08:38:32;11.30;99.90
21602;DHT22;10963;50.934;4.668;2024-01-30T08:40:58;11.50;99.90
21602;DHT22;10963;50.934;4.668;2024-01-30T08:43:23;11.50;99.90
21602;DHT22;10963;50.934;4.668;2024-01-30T08:45:49;11.60;99.90
21602;DHT22;10963;50.934;4.668;2024-01-30T08:48:15;11.50;99.90
21602;DHT22;10963;50.934;4.668;2024-01-30T08:50:43;11.60;99.90
21602;DHT22;10963;50.934;4.668;2024-01-30T08:53:11;11.60;99.90
21602;DHT22;10963;50.934;4.668;2024-01-30T08:55:37;11.60;99.90
21602;DHT22;10963;50.934;4.668;2024-01-30T08:58:05;11.80;99.90
21602;DHT22;10963;50.934;4.668;2024-01-30T09:00:33;11.90;99.90
21602;DHT22;10963;50.934;4.668;2024-01-30T09:02:59;12.10;99.90
21602;DHT22;10963;50.934;4.668;2024-01-30T09:05:24;12.20;99.90
21602;DHT22;10963;50.934;4.668;2024-01-30T09:07:50;12.10;99.90
21602;DHT22;10963;50.934;4.668;2024-01-30T09:10:16;12.10;99.90
21602;DHT22;10963;50.934;4.668;2024-01-30T09:12:41;12.20;99.90
21602;DHT22;10963;50.934;4.668;2024-01-30T09:15:07;12.30;99.90
21602;DHT22;10963;50.934;4.668;2024-01-30T09:17:33;12.30;99.90
21602;DHT22;10963;50.934;4.668;2024-01-30T09:20:01;12.20;99.90
21602;DHT22;10963;50.934;4.668;2024-01-30T09:22:30;12.10;99.90
21602;DHT22;10963;50.934;4.668;2024-01-30T09:24:58;12.20;99.90
21602;DHT22;10963;50.934;4.668;2024-01-30T09:27:26;12.30;99.90
21602;DHT22;10963;50.934;4.668;2024-01-30T09:29:52;12.30;99.90
21602;DHT22;10963;50.934;4.668;2024-01-30T09:32:18;12.30;99.90
21602;DHT22;10963;50.934;4.668;2024-01-30T09:34:44;12.20;99.90
21602;DHT22;10963;50.934;4.668;2024-01-30T09:37:11;12.10;99.90
21602;DHT22;10963;50.934;4.668;2024-01-30T09:39:37;12.20;99.90
21602;DHT22;10963;50.934;4.668;2024-01-30T09:42:37;12.20;99.90
21602;DHT22;10963;50.934;4.668;2024-01-30T09:45:04;12.20;99.90
21602;DHT22;10963;50.934;4.668;2024-01-30T09:47:40;12.20;99.90
21602;DHT22;10963;50.934;4.668;2024-01-30T09:50:09;12.20;99.90
21602;DHT22;10963;50.934;4.668;2024-01-30T09:52:36;12.10;99.90
21602;DHT22;10963;50.934;4.668;2024-01-30T09:55:07;12.10;99.90
21602;DHT22;10963;50.934;4.668;2024-01-30T09:57:35;12.10;99.90
21602;DHT22;10963;50.934;4.668;2024-01-30T10:00:04;12.30;99.90
21602;DHT22;10963;50.934;4.668;2024-01-30T10:02:35;12.40;99.90
21602;DHT22;10963;50.934;4.668;2024-01-30T10:05:01;12.60;99.90
21602;DHT22;10963;50.934;4.668;2024-01-30T10:07:29;12.40;99.90
21602;DHT22;10963;50.934;4.668;2024-01-30T10:09:56;12.50;99.90
21602;DHT22;10963;50.934;4.668;2024-01-30T10:12:26;12.80;99.90
21602;DHT22;10963;50.934;4.668;2024-01-30T10:14:52;12.90;99.90
21602;DHT22;10963;50.934;4.668;2024-01-30T10:17:18;12.70;99.90
21602;DHT22;10963;50.934;4.668;2024-01-30T10:19:43;12.60;99.90
21602;DHT22;10963;50.934;4.668;2024-01-30T10:22:12;12.70;99.90
21602;DHT22;10963;50.934;4.668;2024-01-30T10:24:40;12.70;99.90
21602;DHT22;10963;50.934;4.668;2024-01-30T10:27:06;12.80;99.90
21602;DHT22;10963;50.934;4.668;2024-01-30T10:29:37;12.80;99.90
21602;DHT22;10963;50.934;4.668;2024-01-30T10:32:04;12.70;99.90
21602;DHT22;10963;50.934;4.668;2024-01-30T10:34:34;12.80;99.90
21602;DHT22;10963;50.934;4.668;2024-01-30T10:37:10;13.10;99.90
21602;DHT22;10963;50.934;4.668;2024-01-30T10:39:45;13.20;99.90
21602;DHT22;10963;50.934;4.668;2024-01-30T10:42:18;13.10;99.90
21602;DHT22;10963;50.934;4.668;2024-01-30T10:45:08;13.20;99.90
21602;DHT22;10963;50.934;4.668;2024-01-30T10:47:37;13.30;99.90
21602;DHT22;10963;50.934;4.668;2024-01-30T10:50:05;13.20;99.90
21602;DHT22;10963;50.934;4.668;2024-01-30T10:52:33;13.10;99.90
21602;DHT22;10963;50.934;4.668;2024-01-30T10:54:59;13.00;99.90
21602;DHT22;10963;50.934;4.668;2024-01-30T10:57:30;12.90;99.90
21602;DHT22;10963;50.934;4.668;2024-01-30T10:59:58;12.80;99.90
21602;DHT22;10963;50.934;4.668;2024-01-30T11:02:24;12.90;99.90
21602;DHT22;10963;50.934;4.668;2024-01-30T11:04:57;12.90;99.90
21602;DHT22;10963;50.934;4.668;2024-01-30T11:07:29;13.00;99.90
21602;DHT22;10963;50.934;4.668;2024-01-30T11:12:24;13.10;99.90
21602;DHT22;10963;50.934;4.668;2024-01-30T11:15:37;13.10;99.90
21602;DHT22;10963;50.934;4.668;2024-01-30T11:17:56;13.20;99.90
21602;DHT22;10963;50.934;4.668;2024-01-30T11:20:26;13.20;99.90
21602;DHT22;10963;50.934;4.668;2024-01-30T11:22:54;13.40;99.90
21602;DHT22;10963;50.934;4.668;2024-01-30T11:25:21;13.30;99.90
21602;DHT22;10963;50.934;4.668;2024-01-30T11:27:50;13.40;99.90
21602;DHT22;10963;50.934;4.668;2024-01-30T11:33:04;13.40;99.90
21602;DHT22;10963;50.934;4.668;2024-01-30T11:35:32;13.30;99.90
21602;DHT22;10963;50.934;4.668;2024-01-30T11:37:59;13.20;99.90
21602;DHT22;10963;50.934;4.668;2024-01-30T11:40:30;13.20;99.90
21602;DHT22;10963;50.934;4.668;2024-01-30T11:43:01;13.10;99.90
21602;DHT22;10963;50.934;4.668;2024-01-30T11:45:33;12.90;99.90
21602;DHT22;10963;50.934;4.668;2024-01-30T11:47:59;13.00;99.90
21602;DHT22;10963;50.934;4.668;2024-01-30T11:50:35;13.00;99.90
21602;DHT22;10963;50.934;4.668;2024-01-30T11:53:06;13.10;99.90
21602;DHT22;10963;50.934;4.668;2024-01-30T11:55:36;13.00;99.90
21602;DHT22;10963;50.934;4.668;2024-01-30T11:58:07;12.90;99.90
21602;DHT22;10963;50.934;4.668;2024-01-30T12:00:38;12.80;99.90
21602;DHT22;10963;50.934;4.668;2024-01-30T12:03:07;12.80;99.90
21602;DHT22;10963;50.934;4.668;2024-01-30T12:05:37;12.80;99.90
21602;DHT22;10963;50.934;4.668;2024-01-30T12:08:13;12.60;99.90
21602;DHT22;10963;50.934;4.668;2024-01-30T12:10:39;12.70;99.90
21602;DHT22;10963;50.934;4.668;2024-01-30T12:13:05;12.90;99.90
21602;DHT22;10963;50.934;4.668;2024-01-30T12:15:33;12.90;99.90
21602;DHT22;10963;50.934;4.668;2024-01-30T12:18:08;13.00;99.90
21602;DHT22;10963;50.934;4.668;2024-01-30T12:20:41;13.00;99.90
21602;DHT22;10963;50.934;4.668;2024-01-30T12:23:06;12.90;99.90
21602;DHT22;10963;50.934;4.668;2024-01-30T12:25:32;13.10;99.90
21602;DHT22;10963;50.934;4.668;2024-01-30T12:28:00;13.00;99.90
21602;DHT22;10963;50.934;4.668;2024-01-30T12:30:28;13.10;99.90
21602;DHT22;10963;50.934;4.668;2024-01-30T12:32:57;13.20;99.90
21602;DHT22;10963;50.934;4.668;2024-01-30T12:35:23;13.10;99.90
21602;DHT22;10963;50.934;4.668;2024-01-30T12:37:49;13.00;99.90
21602;DHT22;10963;50.934;4.668;2024-01-30T12:40:16;12.90;99.90
21602;DHT22;10963;50.934;4.668;2024-01-30T12:42:46;12.90;99.90
21602;DHT22;10963;50.934;4.668;2024-01-30T12:45:16;13.20;99.90
21602;DHT22;10963;50.934;4.668;2024-01-30T12:47:45;13.50;99.90
21602;DHT22;10963;50.934;4.668;2024-01-30T12:50:11;13.90;99.90
21602;DHT22;10963;50.934;4.668;2024-01-30T12:52:37;14.00;99.90
21602;DHT22;10963;50.934;4.668;2024-01-30T12:55:04;13.90;99.90
21602;DHT22;10963;50.934;4.668;2024-01-30T12:57:29;14.00;99.90
21602;DHT22;10963;50.934;4.668;2024-01-30T13:00:00;13.80;99.90
21602;DHT22;10963;50.934;4.668;2024-01-30T13:02:26;14.00;99.90
21602;DHT22;10963;50.934;4.668;2024-01-30T13:04:57;14.10;99.90
21602;DHT22;10963;50.934;4.668;2024-01-30T13:07:23;14.10;99.90
21602;DHT22;10963;50.934;4.668;2024-01-30T13:09:49;14.00;99.90
21602;DHT22;10963;50.934;4.668;2024-01-30T13:12:14;13.60;99.90
21602;DHT22;10963;50.934;4.668;2024-01-30T13:14:42;13.60;99.90
21602;DHT22;10963;50.934;4.668;2024-01-30T13:17:08;13.50;99.90
21602;DHT22;10963;50.934;4.668;2024-01-30T13:19:36;13.60;99.90
21602;DHT22;10963;50.934;4.668;2024-01-30T13:22:02;13.60;99.90
21602;DHT22;10963;50.934;4.668;2024-01-30T13:24:27;13.60;99.90
21602;DHT22;10963;50.934;4.668;2024-01-30T13:26:55;13.50;99.90
21602;DHT22;10963;50.934;4.668;2024-01-30T13:29:23;13.30;99.90
21602;DHT22;10963;50.934;4.668;2024-01-30T13:31:51;13.40;99.90
21602;DHT22;10963;50.934;4.668;2024-01-30T13:34:19;13.40;99.90
21602;DHT22;10963;50.934;4.668;2024-01-30T13:36:48;13.30;99.90
21602;DHT22;10963;50.934;4.668;2024-01-30T13:39:16;13.20;99.90
21602;DHT22;10963;50.934;4.668;2024-01-30T13:41:44;13.20;99.90
21602;DHT22;10963;50.934;4.668;2024-01-30T13:44:12;13.10;99.90
21602;DHT22;10963;50.934;4.668;2024-01-30T13:46:38;12.90;99.90
21602;DHT22;10963;50.934;4.668;2024-01-30T13:49:09;12.80;99.90
21602;DHT22;10963;50.934;4.668;2024-01-30T13:51:34;12.90;99.90
21602;DHT22;10963;50.934;4.668;2024-01-30T13:54:00;12.50;99.90
21602;DHT22;10963;50.934;4.668;2024-01-30T13:56:26;12.60;99.90
21602;DHT22;10963;50.934;4.668;2024-01-30T13:58:54;12.50;99.90
21602;DHT22;10963;50.934;4.668;2024-01-30T14:01:26;12.40;99.90
21602;DHT22;10963;50.934;4.668;2024-01-30T14:03:52;12.30;99.90
21602;DHT22;10963;50.934;4.668;2024-01-30T14:06:18;12.30;99.90
21602;DHT22;10963;50.934;4.668;2024-01-30T14:08:44;12.30;99.90
21602;DHT22;10963;50.934;4.668;2024-01-30T14:11:14;12.50;99.90
21602;DHT22;10963;50.934;4.668;2024-01-30T14:13:42;12.70;99.90
21602;DHT22;10963;50.934;4.668;2024-01-30T14:16:10;12.90;99.90
21602;DHT22;10963;50.934;4.668;2024-01-30T14:18:36;12.90;99.90
21602;DHT22;10963;50.934;4.668;2024-01-30T14:21:02;13.00;99.90
21602;DHT22;10963;50.934;4.668;2024-01-30T14:23:30;12.90;99.90
21602;DHT22;10963;50.934;4.668;2024-01-30T14:25:56;12.90;99.90
21602;DHT22;10963;50.934;4.668;2024-01-30T14:28:21;13.00;99.90
21602;DHT22;10963;50.934;4.668;2024-01-30T14:30:52;12.90;99.90
21602;DHT22;10963;50.934;4.668;2024-01-30T14:33:20;12.80;99.90
21602;DHT22;10963;50.934;4.668;2024-01-30T14:35:48;12.70;99.90
21602;DHT22;10963;50.934;4.668;2024-01-30T14:38:14;12.60;99.90
21602;DHT22;10963;50.934;4.668;2024-01-30T14:40:41;12.50;99.90
21602;DHT22;10963;50.934;4.668;2024-01-30T14:43:07;12.50;99.90
21602;DHT22;10963;50.934;4.668;2024-01-30T14:45:32;12.40;99.90
21602;DHT22;10963;50.934;4.668;2024-01-30T14:48:03;12.50;99.90
21602;DHT22;10963;50.934;4.668;2024-01-30T14:50:28;12.50;99.90
21602;DHT22;10963;50.934;4.668;2024-01-30T14:53:04;12.40;99.90
21602;DHT22;10963;50.934;4.668;2024-01-30T14:55:30;12.50;99.90
21602;DHT22;10963;50.934;4.668;2024-01-30T14:57:56;12.40;99.90
21602;DHT22;10963;50.934;4.668;2024-01-30T15:00:22;12.40;99.90
21602;DHT22;10963;50.934;4.668;2024-01-30T15:02:47;12.30;99.90
21602;DHT22;10963;50.934;4.668;2024-01-30T15:05:16;12.30;99.90
21602;DHT22;10963;50.934;4.668;2024-01-30T15:07:42;12.10;99.90
21602;DHT22;10963;50.934;4.668;2024-01-30T15:10:08;12.00;99.90
21602;DHT22;10963;50.934;4.668;2024-01-30T15:12:37;11.80;99.90
21602;DHT22;10963;50.934;4.668;2024-01-30T15:15:07;11.70;99.90
21602;DHT22;10963;50.934;4.668;2024-01-30T15:17:33;11.70;99.90
21602;DHT22;10963;50.934;4.668;2024-01-30T15:20:01;11.70;99.90
21602;DHT22;10963;50.934;4.668;2024-01-30T15:22:31;11.70;99.90
21602;DHT22;10963;50.934;4.668;2024-01-30T15:24:59;11.60;99.90
21602;DHT22;10963;50.934;4.668;2024-01-30T15:27:27;11.60;99.90
21602;DHT22;10963;50.934;4.668;2024-01-30T15:29:55;11.50;99.90
21602;DHT22;10963;50.934;4.668;2024-01-30T15:32:23;11.50;99.90
21602;DHT22;10963;50.934;4.668;2024-01-30T15:34:52;11.40;99.90
21602;DHT22;10963;50.934;4.668;2024-01-30T15:37:18;11.50;99.90